KCEU/CEU METAR and TAF weather

Enter ICAO airport designator
Station Type Date Time Source
KCEU METAR 2018/01/23 01:37 UTC NOAA

KCEU 230137Z AUTO 00000KT 4SM -RA BR FEW010 SCT026 OVC090 11/11 A2998 RMK AO2 T01060106 PNO $


Station Type Date Time Source
KCEU Decoded METAR 2018/01/23 01:37 UTC NOAA

CLEMSON-OCONEE COUNTY AIRPORT , SC, United States (KCEU) 34-40N 082-53W 268M
Jan 22, 2018 - 08:37 PM EST / 2018.01.23 0137 UTC
Wind: Calm:0
Visibility: 4 mile(s):0
Sky conditions: overcast
Weather: light rain; mist
Temperature: 51.1 F (10.6 C)
Dew Point: 51.1 F (10.6 C)
Relative Humidity: 100%
Pressure (altimeter): 29.98 in. Hg (1015 hPa)
ob: KCEU 230137Z AUTO 00000KT 4SM -RA BR FEW010 SCT026 OVC090 11/11 A2998 RMK AO2 T01060106 PNO
cycle: 1

Station Type Date Time Source
KCEU TAF UTC NOAA

Error!


Example: see airport list